sensor_id;sensor_type;location;lat;lon;timestamp;temperature;humidity
27940;DHT22;15275;51.716;14.324;2023-03-14T00:02:26;15.00;84.10
27940;DHT22;15275;51.716;14.324;2023-03-14T00:04:54;15.00;84.10
27940;DHT22;15275;51.716;14.324;2023-03-14T00:07:21;15.00;84.10
27940;DHT22;15275;51.716;14.324;2023-03-14T00:09:50;14.90;84.10
27940;DHT22;15275;51.716;14.324;2023-03-14T00:12:16;14.90;84.10
27940;DHT22;15275;51.716;14.324;2023-03-14T00:14:42;14.90;84.10
27940;DHT22;15275;51.716;14.324;2023-03-14T00:17:09;14.80;84.10
27940;DHT22;15275;51.716;14.324;2023-03-14T00:19:34;14.80;84.10
27940;DHT22;15275;51.716;14.324;2023-03-14T00:22:00;14.80;84.10
27940;DHT22;15275;51.716;14.324;2023-03-14T00:24:26;14.80;84.20
27940;DHT22;15275;51.716;14.324;2023-03-14T00:26:52;14.80;84.30
27940;DHT22;15275;51.716;14.324;2023-03-14T00:29:18;14.80;84.30
27940;DHT22;15275;51.716;14.324;2023-03-14T00:31:44;14.80;84.30
27940;DHT22;15275;51.716;14.324;2023-03-14T00:34:09;14.80;84.30
27940;DHT22;15275;51.716;14.324;2023-03-14T00:36:35;14.80;84.40
27940;DHT22;15275;51.716;14.324;2023-03-14T00:39:01;14.80;84.40
27940;DHT22;15275;51.716;14.324;2023-03-14T00:41:27;14.80;84.40
27940;DHT22;15275;51.716;14.324;2023-03-14T00:43:52;14.80;84.40
27940;DHT22;15275;51.716;14.324;2023-03-14T00:46:18;14.80;84.40
27940;DHT22;15275;51.716;14.324;2023-03-14T00:48:45;14.80;84.40
27940;DHT22;15275;51.716;14.324;2023-03-14T00:51:12;14.80;84.40
27940;DHT22;15275;51.716;14.324;2023-03-14T00:53:40;14.80;84.40
27940;DHT22;15275;51.716;14.324;2023-03-14T00:56:08;14.80;84.50
27940;DHT22;15275;51.716;14.324;2023-03-14T00:58:36;14.80;84.50
27940;DHT22;15275;51.716;14.324;2023-03-14T01:01:12;14.80;84.40
27940;DHT22;15275;51.716;14.324;2023-03-14T01:03:39;14.80;84.30
27940;DHT22;15275;51.716;14.324;2023-03-14T01:06:16;14.80;84.40
27940;DHT22;15275;51.716;14.324;2023-03-14T01:08:44;14.80;84.20
27940;DHT22;15275;51.716;14.324;2023-03-14T01:11:13;14.80;84.30
27940;DHT22;15275;51.716;14.324;2023-03-14T01:13:42;14.80;84.30
27940;DHT22;15275;51.716;14.324;2023-03-14T01:16:09;14.80;84.30
27940;DHT22;15275;51.716;14.324;2023-03-14T01:18:37;14.80;84.30
27940;DHT22;15275;51.716;14.324;2023-03-14T01:21:10;14.80;84.30
27940;DHT22;15275;51.716;14.324;2023-03-14T01:23:40;14.80;84.30
27940;DHT22;15275;51.716;14.324;2023-03-14T01:26:12;14.80;84.40
27940;DHT22;15275;51.716;14.324;2023-03-14T01:28:39;14.80;84.30
27940;DHT22;15275;51.716;14.324;2023-03-14T01:31:07;14.70;84.30
27940;DHT22;15275;51.716;14.324;2023-03-14T01:33:35;14.70;84.20
27940;DHT22;15275;51.716;14.324;2023-03-14T01:36:01;14.70;84.20
27940;DHT22;15275;51.716;14.324;2023-03-14T01:38:29;14.70;84.20
27940;DHT22;15275;51.716;14.324;2023-03-14T01:40:56;14.70;84.20
27940;DHT22;15275;51.716;14.324;2023-03-14T01:43:23;14.60;84.20
27940;DHT22;15275;51.716;14.324;2023-03-14T01:48:36;14.60;83.90
27940;DHT22;15275;51.716;14.324;2023-03-14T01:51:08;14.60;84.00
27940;DHT22;15275;51.716;14.324;2023-03-14T01:53:36;14.50;84.10
27940;DHT22;15275;51.716;14.324;2023-03-14T01:56:03;14.50;84.10
27940;DHT22;15275;51.716;14.324;2023-03-14T01:58:31;14.50;84.20
27940;DHT22;15275;51.716;14.324;2023-03-14T02:01:01;14.50;84.30
27940;DHT22;15275;51.716;14.324;2023-03-14T02:03:29;14.40;84.40
27940;DHT22;15275;51.716;14.324;2023-03-14T02:06:00;14.40;84.30
27940;DHT22;15275;51.716;14.324;2023-03-14T02:08:29;14.40;84.40
27940;DHT22;15275;51.716;14.324;2023-03-14T02:10:56;14.40;84.40
27940;DHT22;15275;51.716;14.324;2023-03-14T02:13:22;14.40;84.40
27940;DHT22;15275;51.716;14.324;2023-03-14T02:15:49;14.40;84.50
27940;DHT22;15275;51.716;14.324;2023-03-14T02:18:16;14.40;84.50
27940;DHT22;15275;51.716;14.324;2023-03-14T02:29:45;14.30;84.00
27940;DHT22;15275;51.716;14.324;2023-03-14T02:32:19;14.30;84.30
27940;DHT22;15275;51.716;14.324;2023-03-14T02:34:49;14.30;84.40
27940;DHT22;15275;51.716;14.324;2023-03-14T02:37:19;14.30;84.40
27940;DHT22;15275;51.716;14.324;2023-03-14T02:39:46;14.30;84.30
27940;DHT22;15275;51.716;14.324;2023-03-14T02:42:15;14.30;84.20
27940;DHT22;15275;51.716;14.324;2023-03-14T02:44:53;14.30;84.20
27940;DHT22;15275;51.716;14.324;2023-03-14T02:47:29;14.30;84.10
27940;DHT22;15275;51.716;14.324;2023-03-14T02:50:03;14.30;84.20
27940;DHT22;15275;51.716;14.324;2023-03-14T02:52:32;14.30;84.00
27940;DHT22;15275;51.716;14.324;2023-03-14T02:54:57;14.30;84.00
27940;DHT22;15275;51.716;14.324;2023-03-14T02:57:23;14.30;83.90
27940;DHT22;15275;51.716;14.324;2023-03-14T02:59:49;14.20;83.90
27940;DHT22;15275;51.716;14.324;2023-03-14T03:02:15;14.20;83.80
27940;DHT22;15275;51.716;14.324;2023-03-14T03:04:41;14.20;83.70
27940;DHT22;15275;51.716;14.324;2023-03-14T03:07:08;14.20;83.60
27940;DHT22;15275;51.716;14.324;2023-03-14T03:09:33;14.10;83.70
27940;DHT22;15275;51.716;14.324;2023-03-14T03:11:59;14.10;83.60
27940;DHT22;15275;51.716;14.324;2023-03-14T03:14:25;14.10;83.60
27940;DHT22;15275;51.716;14.324;2023-03-14T03:16:51;14.00;83.60
27940;DHT22;15275;51.716;14.324;2023-03-14T03:19:17;14.00;83.70
27940;DHT22;15275;51.716;14.324;2023-03-14T03:21:44;14.00;83.80
27940;DHT22;15275;51.716;14.324;2023-03-14T03:24:09;13.90;83.80
27940;DHT22;15275;51.716;14.324;2023-03-14T03:26:36;13.90;83.90
27940;DHT22;15275;51.716;14.324;2023-03-14T03:29:02;13.90;83.80
27940;DHT22;15275;51.716;14.324;2023-03-14T03:31:28;13.90;83.80
27940;DHT22;15275;51.716;14.324;2023-03-14T03:33:54;13.80;83.80
27940;DHT22;15275;51.716;14.324;2023-03-14T03:36:22;13.80;83.80
27940;DHT22;15275;51.716;14.324;2023-03-14T03:38:48;13.80;83.80
27940;DHT22;15275;51.716;14.324;2023-03-14T03:41:14;13.80;83.90
27940;DHT22;15275;51.716;14.324;2023-03-14T03:43:40;13.70;83.90
27940;DHT22;15275;51.716;14.324;2023-03-14T03:46:06;13.70;83.80
27940;DHT22;15275;51.716;14.324;2023-03-14T03:48:32;13.70;84.00
27940;DHT22;15275;51.716;14.324;2023-03-14T03:50:59;13.70;83.90
27940;DHT22;15275;51.716;14.324;2023-03-14T03:53:25;13.60;83.90
27940;DHT22;15275;51.716;14.324;2023-03-14T03:55:50;13.60;84.00
27940;DHT22;15275;51.716;14.324;2023-03-14T03:58:16;13.60;84.10
27940;DHT22;15275;51.716;14.324;2023-03-14T04:00:42;13.60;84.00
27940;DHT22;15275;51.716;14.324;2023-03-14T04:03:08;13.60;84.00
27940;DHT22;15275;51.716;14.324;2023-03-14T04:05:34;13.60;83.90
27940;DHT22;15275;51.716;14.324;2023-03-14T04:08:01;13.60;83.90
27940;DHT22;15275;51.716;14.324;2023-03-14T04:10:27;13.60;83.90
27940;DHT22;15275;51.716;14.324;2023-03-14T04:12:53;13.60;83.70
27940;DHT22;15275;51.716;14.324;2023-03-14T04:15:19;13.60;83.70
27940;DHT22;15275;51.716;14.324;2023-03-14T04:17:45;13.60;83.60
27940;DHT22;15275;51.716;14.324;2023-03-14T04:20:11;13.60;83.60
27940;DHT22;15275;51.716;14.324;2023-03-14T04:22:40;13.60;83.50
27940;DHT22;15275;51.716;14.324;2023-03-14T04:25:06;13.60;83.50
27940;DHT22;15275;51.716;14.324;2023-03-14T04:27:33;13.60;83.50
27940;DHT22;15275;51.716;14.324;2023-03-14T04:29:58;13.60;83.30
27940;DHT22;15275;51.716;14.324;2023-03-14T04:32:24;13.60;83.20
27940;DHT22;15275;51.716;14.324;2023-03-14T04:34:50;13.70;83.20
27940;DHT22;15275;51.716;14.324;2023-03-14T04:37:16;13.60;83.10
27940;DHT22;15275;51.716;14.324;2023-03-14T04:39:41;13.60;82.90
27940;DHT22;15275;51.716;14.324;2023-03-14T04:42:07;13.70;82.70
27940;DHT22;15275;51.716;14.324;2023-03-14T04:44:33;13.60;82.60
27940;DHT22;15275;51.716;14.324;2023-03-14T04:46:59;13.60;82.60
27940;DHT22;15275;51.716;14.324;2023-03-14T04:49:25;13.70;82.40
27940;DHT22;15275;51.716;14.324;2023-03-14T04:51:51;13.70;82.50
27940;DHT22;15275;51.716;14.324;2023-03-14T04:54:17;13.70;82.50
27940;DHT22;15275;51.716;14.324;2023-03-14T04:56:43;13.70;82.30
27940;DHT22;15275;51.716;14.324;2023-03-14T04:59:09;13.70;82.20
27940;DHT22;15275;51.716;14.324;2023-03-14T05:01:35;13.70;82.20
27940;DHT22;15275;51.716;14.324;2023-03-14T05:04:01;13.70;81.90
27940;DHT22;15275;51.716;14.324;2023-03-14T05:06:27;13.70;81.90
27940;DHT22;15275;51.716;14.324;2023-03-14T05:08:53;13.70;82.00
27940;DHT22;15275;51.716;14.324;2023-03-14T05:11:18;13.80;81.80
27940;DHT22;15275;51.716;14.324;2023-03-14T05:13:44;13.80;81.80
27940;DHT22;15275;51.716;14.324;2023-03-14T05:16:11;13.80;81.80
27940;DHT22;15275;51.716;14.324;2023-03-14T05:18:37;13.80;81.70
27940;DHT22;15275;51.716;14.324;2023-03-14T05:21:03;13.80;81.40
27940;DHT22;15275;51.716;14.324;2023-03-14T05:23:30;13.80;81.80
27940;DHT22;15275;51.716;14.324;2023-03-14T05:25:56;13.90;81.40
27940;DHT22;15275;51.716;14.324;2023-03-14T05:28:22;13.90;81.80
27940;DHT22;15275;51.716;14.324;2023-03-14T05:30:47;13.90;81.40
27940;DHT22;15275;51.716;14.324;2023-03-14T05:33:14;13.90;81.60
27940;DHT22;15275;51.716;14.324;2023-03-14T05:35:39;14.00;81.30
27940;DHT22;15275;51.716;14.324;2023-03-14T05:38:05;14.00;81.30
27940;DHT22;15275;51.716;14.324;2023-03-14T05:40:31;14.00;81.20
27940;DHT22;15275;51.716;14.324;2023-03-14T05:42:57;14.00;81.30
27940;DHT22;15275;51.716;14.324;2023-03-14T05:45:22;14.00;81.30
27940;DHT22;15275;51.716;14.324;2023-03-14T05:47:48;14.00;81.30
27940;DHT22;15275;51.716;14.324;2023-03-14T05:50:14;14.10;81.40
27940;DHT22;15275;51.716;14.324;2023-03-14T05:52:40;14.10;81.20
27940;DHT22;15275;51.716;14.324;2023-03-14T05:55:06;14.10;81.20
27940;DHT22;15275;51.716;14.324;2023-03-14T05:57:32;14.10;81.00
27940;DHT22;15275;51.716;14.324;2023-03-14T05:59:58;14.10;80.90
27940;DHT22;15275;51.716;14.324;2023-03-14T06:02:24;14.10;81.10
27940;DHT22;15275;51.716;14.324;2023-03-14T06:04:50;14.10;81.20
27940;DHT22;15275;51.716;14.324;2023-03-14T06:07:16;14.10;81.10
27940;DHT22;15275;51.716;14.324;2023-03-14T06:09:41;14.10;81.20
27940;DHT22;15275;51.716;14.324;2023-03-14T06:12:07;14.10;81.10
27940;DHT22;15275;51.716;14.324;2023-03-14T06:14:33;14.10;81.40
27940;DHT22;15275;51.716;14.324;2023-03-14T06:16:59;14.10;81.20
27940;DHT22;15275;51.716;14.324;2023-03-14T06:19:25;14.10;81.40
27940;DHT22;15275;51.716;14.324;2023-03-14T06:21:51;14.20;81.30
27940;DHT22;15275;51.716;14.324;2023-03-14T06:24:17;14.20;81.40
27940;DHT22;15275;51.716;14.324;2023-03-14T06:26:43;14.20;80.60
27940;DHT22;15275;51.716;14.324;2023-03-14T06:29:09;14.20;80.80
27940;DHT22;15275;51.716;14.324;2023-03-14T06:31:35;14.20;80.80
27940;DHT22;15275;51.716;14.324;2023-03-14T06:34:01;14.20;80.60
27940;DHT22;15275;51.716;14.324;2023-03-14T06:36:27;14.20;80.50
27940;DHT22;15275;51.716;14.324;2023-03-14T06:38:53;14.20;80.30
27940;DHT22;15275;51.716;14.324;2023-03-14T06:41:19;14.20;80.60
27940;DHT22;15275;51.716;14.324;2023-03-14T06:43:45;14.20;80.50
27940;DHT22;15275;51.716;14.324;2023-03-14T06:46:10;14.30;80.40
27940;DHT22;15275;51.716;14.324;2023-03-14T06:48:36;14.30;80.90
27940;DHT22;15275;51.716;14.324;2023-03-14T06:51:02;14.40;80.80
27940;DHT22;15275;51.716;14.324;2023-03-14T06:53:28;14.40;81.20
27940;DHT22;15275;51.716;14.324;2023-03-14T06:55:54;14.50;80.90
27940;DHT22;15275;51.716;14.324;2023-03-14T06:58:20;14.60;81.00
27940;DHT22;15275;51.716;14.324;2023-03-14T07:00:46;14.60;80.80
27940;DHT22;15275;51.716;14.324;2023-03-14T07:03:13;14.70;80.90
27940;DHT22;15275;51.716;14.324;2023-03-14T07:05:39;14.80;80.70
27940;DHT22;15275;51.716;14.324;2023-03-14T07:08:07;14.90;80.80
27940;DHT22;15275;51.716;14.324;2023-03-14T07:10:33;15.00;80.30
27940;DHT22;15275;51.716;14.324;2023-03-14T07:12:59;15.10;80.30
27940;DHT22;15275;51.716;14.324;2023-03-14T07:15:25;15.10;80.20
27940;DHT22;15275;51.716;14.324;2023-03-14T07:17:51;15.20;80.10
27940;DHT22;15275;51.716;14.324;2023-03-14T07:20:17;15.30;80.00
27940;DHT22;15275;51.716;14.324;2023-03-14T07:22:43;15.40;80.20
27940;DHT22;15275;51.716;14.324;2023-03-14T07:25:09;15.50;79.70
27940;DHT22;15275;51.716;14.324;2023-03-14T07:27:37;15.60;80.00
27940;DHT22;15275;51.716;14.324;2023-03-14T07:30:03;15.70;79.00
27940;DHT22;15275;51.716;14.324;2023-03-14T07:32:30;15.70;78.30
27940;DHT22;15275;51.716;14.324;2023-03-14T07:34:56;15.80;78.30
27940;DHT22;15275;51.716;14.324;2023-03-14T07:37:21;15.80;78.10
27940;DHT22;15275;51.716;14.324;2023-03-14T07:39:47;15.80;78.10
27940;DHT22;15275;51.716;14.324;2023-03-14T07:42:13;15.80;77.40
27940;DHT22;15275;51.716;14.324;2023-03-14T07:44:39;15.80;77.40
27940;DHT22;15275;51.716;14.324;2023-03-14T07:47:05;15.80;77.70
27940;DHT22;15275;51.716;14.324;2023-03-14T07:49:31;15.80;77.40
27940;DHT22;15275;51.716;14.324;2023-03-14T07:51:56;15.80;77.50
27940;DHT22;15275;51.716;14.324;2023-03-14T07:54:23;15.80;77.20
27940;DHT22;15275;51.716;14.324;2023-03-14T07:56:50;15.70;77.10
27940;DHT22;15275;51.716;14.324;2023-03-14T07:59:17;15.70;77.00
27940;DHT22;15275;51.716;14.324;2023-03-14T08:01:43;15.70;77.50
27940;DHT22;15275;51.716;14.324;2023-03-14T08:04:09;15.70;77.20
27940;DHT22;15275;51.716;14.324;2023-03-14T08:06:36;15.60;77.40
27940;DHT22;15275;51.716;14.324;2023-03-14T08:09:03;15.60;77.00
27940;DHT22;15275;51.716;14.324;2023-03-14T08:11:29;15.60;77.10
27940;DHT22;15275;51.716;14.324;2023-03-14T08:13:55;15.60;77.30
27940;DHT22;15275;51.716;14.324;2023-03-14T08:16:21;15.60;77.40
27940;DHT22;15275;51.716;14.324;2023-03-14T08:18:47;15.60;77.40
27940;DHT22;15275;51.716;14.324;2023-03-14T08:21:13;15.60;77.20
27940;DHT22;15275;51.716;14.324;2023-03-14T08:23:39;15.60;77.00
27940;DHT22;15275;51.716;14.324;2023-03-14T08:26:06;15.60;77.00
27940;DHT22;15275;51.716;14.324;2023-03-14T08:28:32;15.60;77.10
27940;DHT22;15275;51.716;14.324;2023-03-14T08:30:59;15.60;76.80
27940;DHT22;15275;51.716;14.324;2023-03-14T08:33:27;15.60;77.40
27940;DHT22;15275;51.716;14.324;2023-03-14T08:35:59;15.70;77.40
27940;DHT22;15275;51.716;14.324;2023-03-14T08:38:25;15.70;76.90
27940;DHT22;15275;51.716;14.324;2023-03-14T08:40:59;15.70;76.90
27940;DHT22;15275;51.716;14.324;2023-03-14T08:43:26;15.80;76.70
27940;DHT22;15275;51.716;14.324;2023-03-14T08:45:56;15.80;76.90
27940;DHT22;15275;51.716;14.324;2023-03-14T08:48:23;15.90;77.10
27940;DHT22;15275;51.716;14.324;2023-03-14T08:50:49;15.90;77.00
27940;DHT22;15275;51.716;14.324;2023-03-14T08:53:14;16.00;77.10
27940;DHT22;15275;51.716;14.324;2023-03-14T08:55:40;16.00;77.20
27940;DHT22;15275;51.716;14.324;2023-03-14T08:58:06;16.10;76.30
27940;DHT22;15275;51.716;14.324;2023-03-14T09:00:32;16.20;76.90
27940;DHT22;15275;51.716;14.324;2023-03-14T09:02:58;16.20;76.90
27940;DHT22;15275;51.716;14.324;2023-03-14T09:05:24;16.30;77.20
27940;DHT22;15275;51.716;14.324;2023-03-14T09:07:49;16.40;77.20
27940;DHT22;15275;51.716;14.324;2023-03-14T09:10:15;16.50;76.80
27940;DHT22;15275;51.716;14.324;2023-03-14T09:12:41;16.60;76.30
27940;DHT22;15275;51.716;14.324;2023-03-14T09:15:07;16.70;75.50
27940;DHT22;15275;51.716;14.324;2023-03-14T09:17:34;16.70;75.70
27940;DHT22;15275;51.716;14.324;2023-03-14T09:19:59;16.80;75.90
27940;DHT22;15275;51.716;14.324;2023-03-14T09:22:25;16.90;75.60
27940;DHT22;15275;51.716;14.324;2023-03-14T09:24:51;16.90;75.00
27940;DHT22;15275;51.716;14.324;2023-03-14T09:27:17;16.90;75.40
27940;DHT22;15275;51.716;14.324;2023-03-14T09:29:43;17.00;75.20
27940;DHT22;15275;51.716;14.324;2023-03-14T09:32:08;17.00;75.20
27940;DHT22;15275;51.716;14.324;2023-03-14T09:34:34;17.00;75.00
27940;DHT22;15275;51.716;14.324;2023-03-14T09:37:00;17.10;75.20
27940;DHT22;15275;51.716;14.324;2023-03-14T09:39:26;17.10;75.90
27940;DHT22;15275;51.716;14.324;2023-03-14T09:41:53;17.20;74.90
27940;DHT22;15275;51.716;14.324;2023-03-14T09:44:36;17.30;74.40
27940;DHT22;15275;51.716;14.324;2023-03-14T09:47:07;17.30;72.60
27940;DHT22;15275;51.716;14.324;2023-03-14T09:49:39;17.40;74.70
27940;DHT22;15275;51.716;14.324;2023-03-14T09:52:13;17.40;73.90
27940;DHT22;15275;51.716;14.324;2023-03-14T09:55:10;17.50;73.70
27940;DHT22;15275;51.716;14.324;2023-03-14T09:57:39;17.50;73.00
27940;DHT22;15275;51.716;14.324;2023-03-14T10:02:57;17.60;74.20
27940;DHT22;15275;51.716;14.324;2023-03-14T10:05:27;17.70;74.10
27940;DHT22;15275;51.716;14.324;2023-03-14T10:07:55;17.80;74.80
27940;DHT22;15275;51.716;14.324;2023-03-14T10:10:23;17.90;73.60
27940;DHT22;15275;51.716;14.324;2023-03-14T10:12:59;17.90;74.10
27940;DHT22;15275;51.716;14.324;2023-03-14T10:15:33;18.00;72.50
27940;DHT22;15275;51.716;14.324;2023-03-14T10:18:02;18.10;73.60
27940;DHT22;15275;51.716;14.324;2023-03-14T10:21:28;18.10;72.40
27940;DHT22;15275;51.716;14.324;2023-03-14T10:23:52;18.10;68.50
27940;DHT22;15275;51.716;14.324;2023-03-14T10:26:24;18.10;72.20
27940;DHT22;15275;51.716;14.324;2023-03-14T10:29:00;18.00;71.40
27940;DHT22;15275;51.716;14.324;2023-03-14T10:31:47;18.00;71.80
27940;DHT22;15275;51.716;14.324;2023-03-14T10:34:23;18.00;68.90
27940;DHT22;15275;51.716;14.324;2023-03-14T10:39:50;17.80;70.00
27940;DHT22;15275;51.716;14.324;2023-03-14T10:42:24;17.80;72.00
27940;DHT22;15275;51.716;14.324;2023-03-14T10:44:57;17.70;71.70
27940;DHT22;15275;51.716;14.324;2023-03-14T10:47:26;17.70;72.00
27940;DHT22;15275;51.716;14.324;2023-03-14T10:49:57;17.70;71.60
27940;DHT22;15275;51.716;14.324;2023-03-14T10:52:48;17.60;72.10
27940;DHT22;15275;51.716;14.324;2023-03-14T10:55:14;17.60;71.30
27940;DHT22;15275;51.716;14.324;2023-03-14T10:57:41;17.50;71.30
27940;DHT22;15275;51.716;14.324;2023-03-14T11:00:18;17.50;71.60
27940;DHT22;15275;51.716;14.324;2023-03-14T11:03:06;17.50;71.10
27940;DHT22;15275;51.716;14.324;2023-03-14T11:11:15;17.40;70.60
27940;DHT22;15275;51.716;14.324;2023-03-14T11:14:36;17.40;71.00
27940;DHT22;15275;51.716;14.324;2023-03-14T11:17:27;17.40;67.50
27940;DHT22;15275;51.716;14.324;2023-03-14T11:22:57;17.30;72.70
27940;DHT22;15275;51.716;14.324;2023-03-14T11:28:38;17.30;69.80
27940;DHT22;15275;51.716;14.324;2023-03-14T11:31:27;17.30;72.40
27940;DHT22;15275;51.716;14.324;2023-03-14T11:39:17;17.40;71.90
27940;DHT22;15275;51.716;14.324;2023-03-14T11:41:47;17.40;70.80
27940;DHT22;15275;51.716;14.324;2023-03-14T11:44:19;17.40;72.00
27940;DHT22;15275;51.716;14.324;2023-03-14T11:50:23;17.50;71.80
27940;DHT22;15275;51.716;14.324;2023-03-14T11:53:03;17.60;69.90
27940;DHT22;15275;51.716;14.324;2023-03-14T11:55:36;17.60;69.70
27940;DHT22;15275;51.716;14.324;2023-03-14T11:58:26;17.70;71.70
27940;DHT22;15275;51.716;14.324;2023-03-14T12:00:54;17.70;70.30
27940;DHT22;15275;51.716;14.324;2023-03-14T12:04:00;17.80;72.10
27940;DHT22;15275;51.716;14.324;2023-03-14T12:06:49;17.90;68.80
27940;DHT22;15275;51.716;14.324;2023-03-14T12:09:18;17.90;70.90
27940;DHT22;15275;51.716;14.324;2023-03-14T12:11:58;18.00;71.30
27940;DHT22;15275;51.716;14.324;2023-03-14T12:14:36;18.10;70.20
27940;DHT22;15275;51.716;14.324;2023-03-14T12:17:34;18.10;70.20
27940;DHT22;15275;51.716;14.324;2023-03-14T12:20:05;18.20;70.90
27940;DHT22;15275;51.716;14.324;2023-03-14T12:22:52;18.20;71.50
27940;DHT22;15275;51.716;14.324;2023-03-14T12:25:31;18.30;70.40
27940;DHT22;15275;51.716;14.324;2023-03-14T12:28:05;18.30;69.40
27940;DHT22;15275;51.716;14.324;2023-03-14T12:30:43;18.40;70.90
27940;DHT22;15275;51.716;14.324;2023-03-14T12:35:47;18.40;71.20
27940;DHT22;15275;51.716;14.324;2023-03-14T12:43:47;18.60;67.00
27940;DHT22;15275;51.716;14.324;2023-03-14T12:46:24;18.70;71.10
27940;DHT22;15275;51.716;14.324;2023-03-14T12:51:36;18.90;69.80
27940;DHT22;15275;51.716;14.324;2023-03-14T12:54:24;18.90;68.40
27940;DHT22;15275;51.716;14.324;2023-03-14T12:59:36;18.90;66.90
27940;DHT22;15275;51.716;14.324;2023-03-14T13:04:34;18.70;68.80
27940;DHT22;15275;51.716;14.324;2023-03-14T13:07:03;18.60;68.40
27940;DHT22;15275;51.716;14.324;2023-03-14T13:12:11;18.50;69.30
27940;DHT22;15275;51.716;14.324;2023-03-14T13:14:49;18.50;69.00
27940;DHT22;15275;51.716;14.324;2023-03-14T13:17:46;18.50;67.90
27940;DHT22;15275;51.716;14.324;2023-03-14T13:20:26;18.50;65.80
27940;DHT22;15275;51.716;14.324;2023-03-14T13:22:55;18.50;69.10
27940;DHT22;15275;51.716;14.324;2023-03-14T13:25:21;18.50;69.50
27940;DHT22;15275;51.716;14.324;2023-03-14T13:27:48;18.50;69.70
27940;DHT22;15275;51.716;14.324;2023-03-14T13:30:24;18.50;69.50
27940;DHT22;15275;51.716;14.324;2023-03-14T13:32:53;18.40;68.50
27940;DHT22;15275;51.716;14.324;2023-03-14T13:35:27;18.40;70.00
27940;DHT22;15275;51.716;14.324;2023-03-14T13:38:01;18.30;69.70
27940;DHT22;15275;51.716;14.324;2023-03-14T13:40:32;18.20;68.80
27940;DHT22;15275;51.716;14.324;2023-03-14T13:43:05;18.10;69.80
27940;DHT22;15275;51.716;14.324;2023-03-14T13:45:55;17.90;70.20
27940;DHT22;15275;51.716;14.324;2023-03-14T13:48:25;17.70;70.30
27940;DHT22;15275;51.716;14.324;2023-03-14T13:51:00;17.60;71.10
27940;DHT22;15275;51.716;14.324;2023-03-14T13:53:28;17.40;71.30
27940;DHT22;15275;51.716;14.324;2023-03-14T13:55:54;17.30;72.30
27940;DHT22;15275;51.716;14.324;2023-03-14T13:58:26;17.10;72.90
27940;DHT22;15275;51.716;14.324;2023-03-14T14:01:03;16.90;73.40
27940;DHT22;15275;51.716;14.324;2023-03-14T14:03:33;16.80;74.30
27940;DHT22;15275;51.716;14.324;2023-03-14T14:06:02;16.70;75.00
27940;DHT22;15275;51.716;14.324;2023-03-14T14:08:28;16.70;75.50
27940;DHT22;15275;51.716;14.324;2023-03-14T14:10:58;16.60;76.00
27940;DHT22;15275;51.716;14.324;2023-03-14T14:13:29;16.70;76.60
27940;DHT22;15275;51.716;14.324;2023-03-14T14:15:59;16.70;76.60
27940;DHT22;15275;51.716;14.324;2023-03-14T14:18:27;16.70;76.50
27940;DHT22;15275;51.716;14.324;2023-03-14T14:20:54;16.80;76.50
27940;DHT22;15275;51.716;14.324;2023-03-14T14:23:26;16.80;76.70
27940;DHT22;15275;51.716;14.324;2023-03-14T14:25:55;16.90;76.50
27940;DHT22;15275;51.716;14.324;2023-03-14T14:28:34;17.00;76.60
27940;DHT22;15275;51.716;14.324;2023-03-14T14:33:26;17.10;76.50
27940;DHT22;15275;51.716;14.324;2023-03-14T14:38:20;17.20;76.40
27940;DHT22;15275;51.716;14.324;2023-03-14T14:40:53;17.20;76.20
27940;DHT22;15275;51.716;14.324;2023-03-14T14:43:24;17.30;76.10
27940;DHT22;15275;51.716;14.324;2023-03-14T14:45:54;17.30;75.90
27940;DHT22;15275;51.716;14.324;2023-03-14T14:48:26;17.40;75.50
27940;DHT22;15275;51.716;14.324;2023-03-14T14:51:02;17.40;75.00
27940;DHT22;15275;51.716;14.324;2023-03-14T14:53:30;17.30;74.80
27940;DHT22;15275;51.716;14.324;2023-03-14T14:56:04;17.30;75.50
27940;DHT22;15275;51.716;14.324;2023-03-14T15:01:14;17.30;75.30
27940;DHT22;15275;51.716;14.324;2023-03-14T15:03:46;17.30;73.90
27940;DHT22;15275;51.716;14.324;2023-03-14T15:06:15;17.20;75.40
27940;DHT22;15275;51.716;14.324;2023-03-14T15:08:46;17.20;75.90
27940;DHT22;15275;51.716;14.324;2023-03-14T15:11:19;17.30;75.70
27940;DHT22;15275;51.716;14.324;2023-03-14T15:13:50;17.30;75.70
27940;DHT22;15275;51.716;14.324;2023-03-14T15:16:20;17.30;76.00
27940;DHT22;15275;51.716;14.324;2023-03-14T15:18:54;17.30;75.80
27940;DHT22;15275;51.716;14.324;2023-03-14T15:21:22;17.30;75.50
27940;DHT22;15275;51.716;14.324;2023-03-14T15:23:48;17.30;76.00
27940;DHT22;15275;51.716;14.324;2023-03-14T15:26:26;17.30;76.10
27940;DHT22;15275;51.716;14.324;2023-03-14T15:28:53;17.30;75.90
27940;DHT22;15275;51.716;14.324;2023-03-14T15:31:19;17.30;76.00
27940;DHT22;15275;51.716;14.324;2023-03-14T15:33:47;17.30;76.00
27940;DHT22;15275;51.716;14.324;2023-03-14T15:36:28;17.30;76.00
27940;DHT22;15275;51.716;14.324;2023-03-14T15:38:59;17.30;74.50
27940;DHT22;15275;51.716;14.324;2023-03-14T15:41:26;17.30;75.90
27940;DHT22;15275;51.716;14.324;2023-03-14T15:43:52;17.30;75.30
27940;DHT22;15275;51.716;14.324;2023-03-14T15:46:18;17.40;75.30
27940;DHT22;15275;51.716;14.324;2023-03-14T15:48:45;17.40;74.40
27940;DHT22;15275;51.716;14.324;2023-03-14T15:51:11;17.40;74.40
27940;DHT22;15275;51.716;14.324;2023-03-14T15:53:37;17.40;74.20
27940;DHT22;15275;51.716;14.324;2023-03-14T15:56:09;17.40;73.90
27940;DHT22;15275;51.716;14.324;2023-03-14T15:58:37;17.30;73.20
27940;DHT22;15275;51.716;14.324;2023-03-14T16:01:06;17.30;73.70
27940;DHT22;15275;51.716;14.324;2023-03-14T16:03:34;17.20;73.40
27940;DHT22;15275;51.716;14.324;2023-03-14T16:06:01;17.10;73.30
27940;DHT22;15275;51.716;14.324;2023-03-14T16:08:27;17.10;73.20
27940;DHT22;15275;51.716;14.324;2023-03-14T16:10:56;17.00;73.30
27940;DHT22;15275;51.716;14.324;2023-03-14T16:13:24;17.00;73.50
27940;DHT22;15275;51.716;14.324;2023-03-14T16:16:00;16.90;73.50
27940;DHT22;15275;51.716;14.324;2023-03-14T16:18:29;16.90;72.70
27940;DHT22;15275;51.716;14.324;2023-03-14T16:21:02;16.80;73.70
27940;DHT22;15275;51.716;14.324;2023-03-14T16:23:31;16.80;73.60
27940;DHT22;15275;51.716;14.324;2023-03-14T16:25:58;16.80;73.70
27940;DHT22;15275;51.716;14.324;2023-03-14T16:28:25;16.70;73.60
27940;DHT22;15275;51.716;14.324;2023-03-14T16:30:51;16.70;73.20
27940;DHT22;15275;51.716;14.324;2023-03-14T16:33:18;16.70;73.30